This is the latest recevied weather packets stored in our database for station/object IZ1RFL-3. If no packets are shown the sender has not sent any weather packets the latest 10 day(s).
| Time | Temp. | Humidity | Pressure | Rain* | Wind** | Luminosity | Snow |
|---|---|---|---|---|---|---|---|
| 1777779064 | 13.33° C | 61% | 1019.8 hPa | - | - | - | - |
| 1777778164 | 13.89° C | 60% | 1019.9 hPa | - | - | - | - |
| 1777777263 | 13.89° C | 60% | 1020 hPa | - | - | - | - |
| 1777776363 | 13.33° C | 60% | 1020 hPa | - | - | - | - |
| 1777775463 | 13.89° C | 59% | 1020.1 hPa | - | - | - | - |
| 1777774563 | 13.33° C | 60% | 1020.1 hPa | - | - | - | - |
| 1777773663 | 13.89° C | 59% | 1020.1 hPa | - | - | - | - |
| 1777772763 | 13.89° C | 60% | 1020.2 hPa | - | - | - | - |
| 1777771863 | 14.44° C | 59% | 1020 hPa | - | - | - | - |
| 1777770963 | 14.44° C | 59% | 1020.1 hPa | - | - | - | - |
| 1777770063 | 14.44° C | 58% | 1020.1 hPa | - | - | - | - |
| 1777769163 | 15° C | 58% | 1020.3 hPa | - | - | - | - |
| 1777768263 | 15° C | 58% | 1020.4 hPa | - | - | - | - |
| 1777767363 | 15° C | 58% | 1020.5 hPa | - | - | - | - |
| 1777766463 | 14.44° C | 57% | 1020.6 hPa | - | - | - | - |
| 1777765563 | 15° C | 55% | 1020.8 hPa | - | - | - | - |
| 1777764663 | 15° C | 55% | 1020.8 hPa | - | - | - | - |
| 1777763763 | 15° C | 53% | 1020.9 hPa | - | - | - | - |
| 1777762863 | 15.56° C | 48% | 1020.9 hPa | - | - | - | - |
| 1777761963 | 16.11° C | 44% | 1021 hPa | - | - | - | - |
| 1777761063 | 16.11° C | 42% | 1021 hPa | - | - | - | - |
| 1777760163 | 17.22° C | 38% | 1021.1 hPa | - | - | - | - |
| 1777759263 | 17.22° C | 38% | 1021.1 hPa | - | - | - | - |
| 1777758363 | 17.22° C | 37% | 1021.1 hPa | - | - | - | - |
| 1777757463 | 17.78° C | 36% | 1021 hPa | - | - | - | - |
* Rain since midnight (hover to see other rain measurements)
** Current wind speed in m/s (hover to see current wind gust speed)